createdAt,value
2024-04-09T00:00:02.607Z,75880.59
2024-04-09T00:01:39.150Z,75880.59
2024-04-09T00:03:12.672Z,75920.13
2024-04-09T00:04:46.511Z,75884.56
2024-04-09T00:06:21.254Z,75916.19
2024-04-09T00:07:56.235Z,75890.47
2024-04-09T00:09:32.781Z,75906.28
2024-04-09T00:11:08.686Z,75864.78
2024-04-09T00:12:45.289Z,75856.88
2024-04-09T00:14:20.354Z,75876.63
2024-04-09T00:15:53.540Z,75858.84
2024-04-09T00:17:35.991Z,75843.03
2024-04-09T00:19:10.764Z,75888.50
2024-04-09T00:20:45.550Z,75872.69
2024-04-09T00:22:19.711Z,75884.56
2024-04-09T00:23:53.535Z,75902.34
2024-04-09T00:25:27.407Z,75841.06
2024-04-09T00:27:03.404Z,75831.16
2024-04-09T00:28:36.839Z,75841.06
2024-04-09T00:30:10.636Z,75839.06
2024-04-09T00:31:43.972Z,75860.81
2024-04-09T00:33:19.641Z,75831.16
2024-04-09T00:34:55.149Z,75823.25
2024-04-09T00:36:28.595Z,75821.28
2024-04-09T00:38:08.145Z,75829.19
2024-04-09T00:39:43.107Z,75829.19
2024-04-09T00:41:16.877Z,75809.41
2024-04-09T00:42:51.255Z,75825.25
2024-04-09T00:44:27.310Z,75809.41
2024-04-09T00:46:00.788Z,75846.97
2024-04-09T00:47:37.403Z,75805.47
2024-04-09T00:49:15.462Z,75829.19
2024-04-09T00:50:48.806Z,75852.91
2024-04-09T00:52:22.206Z,75843.03
2024-04-09T00:53:55.609Z,75837.09
2024-04-09T00:55:29.094Z,75862.81
2024-04-09T00:57:03.114Z,75821.28
2024-04-09T00:58:37.094Z,75799.53
2024-04-09T01:00:13.894Z,75846.97
2024-04-09T01:01:48.121Z,75886.53
2024-04-09T01:03:22.122Z,75831.16
2024-04-09T01:04:56.410Z,75789.66
2024-04-09T01:06:30.466Z,75795.59
2024-04-09T01:08:04.815Z,75797.56
2024-04-09T01:09:44.216Z,75758.03
2024-04-09T01:11:17.532Z,75783.72
2024-04-09T01:12:50.868Z,75801.50
2024-04-09T01:14:24.146Z,75807.44
2024-04-09T01:15:58.171Z,75785.69
2024-04-09T01:17:31.951Z,75817.31
2024-04-09T01:19:05.836Z,75787.69
2024-04-09T01:20:39.267Z,75791.63
2024-04-09T01:22:12.955Z,75793.59
2024-04-09T01:23:46.279Z,75807.44
2024-04-09T01:25:19.697Z,75783.72
2024-04-09T01:26:57.079Z,75748.13
2024-04-09T01:28:32.314Z,75783.72
2024-04-09T01:30:07.940Z,75728.38
2024-04-09T01:31:41.184Z,75819.31
2024-04-09T01:33:15.524Z,75801.50
2024-04-09T01:34:49.553Z,75819.31
2024-04-09T01:36:22.965Z,75819.31
2024-04-09T01:37:56.923Z,75805.47
2024-04-09T01:39:30.572Z,75783.72
2024-04-09T01:41:04.280Z,75829.19
2024-04-09T01:42:37.704Z,75817.31
2024-04-09T01:44:11.166Z,75807.44
2024-04-09T01:45:44.709Z,75795.59
2024-04-09T01:47:18.804Z,75777.78
2024-04-09T01:48:52.583Z,75769.88
2024-04-09T01:50:26.047Z,75758.03
2024-04-09T01:51:59.463Z,75789.66
2024-04-09T01:53:32.882Z,75758.03
2024-04-09T01:55:07.005Z,75758.03
2024-04-09T01:56:40.600Z,75761.97
2024-04-09T01:58:13.965Z,75752.09
2024-04-09T01:59:47.208Z,75769.88
2024-04-09T02:01:20.764Z,75781.75
2024-04-09T02:02:54.618Z,75765.94
2024-04-09T02:04:31.981Z,75799.53
2024-04-09T02:06:05.372Z,75860.81
2024-04-09T02:07:38.745Z,75839.06
2024-04-09T02:09:13.589Z,75928.03
2024-04-09T02:10:47.269Z,75908.28
2024-04-09T02:12:20.731Z,75837.09
2024-04-09T02:13:55.338Z,75793.59
2024-04-09T02:15:29.857Z,75801.50
2024-04-09T02:17:03.435Z,75797.56
2024-04-09T02:18:40.720Z,75775.81
2024-04-09T02:20:34.092Z,75797.56
2024-04-09T02:22:07.312Z,75758.03
2024-04-09T02:23:46.995Z,75785.69
2024-04-09T02:25:20.450Z,75758.03
2024-04-09T02:26:54.514Z,75795.59
2024-04-09T02:28:27.783Z,75795.59
2024-04-09T02:30:01.429Z,75758.03
2024-04-09T02:31:35.840Z,75758.03
2024-04-09T02:33:09.442Z,75722.44
2024-04-09T02:34:42.871Z,75716.50
2024-04-09T02:36:17.401Z,75690.81
2024-04-09T02:37:51.502Z,75694.75
2024-04-09T02:39:25.030Z,75698.72
2024-04-09T02:40:58.774Z,75698.72
2024-04-09T02:42:32.595Z,75678.94
2024-04-09T02:44:05.983Z,75665.09
2024-04-09T02:45:39.505Z,75678.94
2024-04-09T02:47:12.908Z,75674.97
2024-04-09T02:48:46.676Z,75680.91
2024-04-09T02:50:21.901Z,75696.72
2024-04-09T02:51:55.216Z,75702.66
2024-04-09T02:53:28.856Z,75710.56
2024-04-09T02:55:02.386Z,75692.78
2024-04-09T02:56:36.165Z,75690.81
2024-04-09T02:58:10.022Z,75700.69
2024-04-09T02:59:43.287Z,75696.72
2024-04-09T03:01:16.709Z,75710.56
2024-04-09T03:02:52.249Z,75714.53
2024-04-09T03:04:25.646Z,75710.56
2024-04-09T03:05:59.189Z,75738.25
2024-04-09T03:07:32.771Z,75738.25
2024-04-09T03:09:06.396Z,75730.34
2024-04-09T03:10:39.955Z,75718.47
2024-04-09T03:12:13.967Z,75718.47
2024-04-09T03:13:53.737Z,75738.25
2024-04-09T03:15:27.757Z,75720.47
2024-04-09T03:17:01.341Z,75724.41
2024-04-09T03:18:34.755Z,75714.53
2024-04-09T03:20:08.920Z,75696.72
2024-04-09T03:21:42.684Z,75674.97
2024-04-09T03:23:16.383Z,75631.50
2024-04-09T03:24:50.329Z,75623.59
2024-04-09T03:26:26.401Z,75623.59
2024-04-09T03:28:01.035Z,75611.72
2024-04-09T03:29:34.631Z,75591.97
2024-04-09T03:31:08.735Z,75584.06
2024-04-09T03:32:42.194Z,75556.38
2024-04-09T03:34:15.666Z,75554.41
2024-04-09T03:35:55.804Z,75564.28
2024-04-09T03:37:29.270Z,75572.19
2024-04-09T03:39:02.733Z,75572.19
2024-04-09T03:40:36.189Z,75544.50
2024-04-09T03:42:09.679Z,75536.59
2024-04-09T03:43:42.907Z,75520.78
2024-04-09T03:45:17.747Z,75528.69
2024-04-09T03:46:51.096Z,75453.56
2024-04-09T03:48:25.202Z,75435.78
2024-04-09T03:49:58.609Z,75421.94
2024-04-09T03:51:33.308Z,75412.06
2024-04-09T03:53:06.929Z,75439.75
2024-04-09T03:54:40.303Z,75418.00
2024-04-09T03:56:14.521Z,75453.56
2024-04-09T03:57:48.016Z,75485.19
2024-04-09T03:59:21.429Z,75516.84
2024-04-09T04:01:09.041Z,75416.00
2024-04-09T04:02:43.218Z,75461.47
2024-04-09T04:04:17.146Z,75455.56
2024-04-09T04:05:54.979Z,75382.41
2024-04-09T04:07:28.415Z,75354.72
2024-04-09T04:09:01.952Z,75151.13
2024-04-09T04:10:35.536Z,75099.75
2024-04-09T04:12:09.023Z,75066.13
2024-04-09T04:13:43.124Z,75078.00
2024-04-09T04:15:16.431Z,75168.91
2024-04-09T04:16:49.918Z,75161.00
2024-04-09T04:18:23.311Z,75192.63
2024-04-09T04:19:56.719Z,75164.97
2024-04-09T04:21:30.090Z,75186.72
2024-04-09T04:23:03.942Z,75204.50
2024-04-09T04:24:37.470Z,75145.19
2024-04-09T04:26:21.424Z,75174.84
2024-04-09T04:27:54.650Z,75161.00
2024-04-09T04:29:28.217Z,75141.25
2024-04-09T04:31:02.363Z,75141.25
2024-04-09T04:32:35.917Z,75135.31
2024-04-09T04:34:09.364Z,75123.47
2024-04-09T04:35:42.746Z,75091.84
2024-04-09T04:37:16.208Z,75070.09
2024-04-09T04:38:51.031Z,75064.16
2024-04-09T04:40:24.350Z,75048.34
2024-04-09T04:42:00.559Z,75046.38
2024-04-09T04:43:34.813Z,75046.38
2024-04-09T04:45:08.519Z,74996.94
2024-04-09T04:46:41.803Z,74937.66
2024-04-09T04:48:15.847Z,74799.28
2024-04-09T04:49:49.394Z,74836.84
2024-04-09T04:51:22.812Z,74813.13
2024-04-09T04:52:56.182Z,74848.72
2024-04-09T04:54:29.652Z,74805.22
2024-04-09T04:56:03.252Z,74793.38
2024-04-09T04:57:36.687Z,74817.09
2024-04-09T04:59:10.011Z,74807.19
2024-04-09T05:00:43.660Z,74761.75
2024-04-09T05:02:17.081Z,74785.47
2024-04-09T05:03:51.097Z,74757.78
2024-04-09T05:05:25.449Z,74637.22
2024-04-09T05:06:59.690Z,74471.22
2024-04-09T05:08:33.719Z,74402.03
2024-04-09T05:10:12.862Z,74413.91
2024-04-09T05:11:46.931Z,74534.44
2024-04-09T05:13:20.530Z,74601.66
2024-04-09T05:14:54.585Z,74641.19
2024-04-09T05:16:28.061Z,74769.66
2024-04-09T05:18:03.566Z,74838.81
2024-04-09T05:19:38.144Z,74840.81
2024-04-09T05:21:11.953Z,74789.41
2024-04-09T05:22:49.893Z,74848.72
2024-04-09T05:24:24.686Z,74872.44
2024-04-09T05:25:58.385Z,74882.31
2024-04-09T05:27:32.029Z,74815.09
2024-04-09T05:29:05.396Z,74609.56
2024-04-09T05:30:38.659Z,74429.72
2024-04-09T05:32:12.005Z,74303.22
2024-04-09T05:33:45.608Z,74236.03
2024-04-09T05:35:21.558Z,74186.63
2024-04-09T05:36:55.854Z,74273.59
2024-04-09T05:38:29.293Z,74457.38
2024-04-09T05:40:03.092Z,74477.13
2024-04-09T05:41:37.574Z,74591.78
2024-04-09T05:43:10.943Z,74322.97
2024-04-09T05:44:44.691Z,74431.69
2024-04-09T05:46:18.142Z,74631.28
2024-04-09T05:47:51.657Z,74714.31
2024-04-09T05:49:25.193Z,74722.22
2024-04-09T05:50:58.565Z,74755.81
2024-04-09T05:52:32.914Z,74801.28
2024-04-09T05:54:06.834Z,74884.28
2024-04-09T05:55:40.139Z,74983.13
2024-04-09T05:57:13.480Z,74987.06
2024-04-09T05:58:46.875Z,74996.94
2024-04-09T06:00:23.574Z,75044.38
2024-04-09T06:01:59.618Z,75022.66
2024-04-09T06:03:33.177Z,75052.31
2024-04-09T06:05:07.029Z,75026.59
2024-04-09T06:06:40.933Z,75016.72
2024-04-09T06:08:14.203Z,75066.13
2024-04-09T06:09:47.774Z,75101.72
2024-04-09T06:11:21.844Z,75081.94
2024-04-09T06:12:55.368Z,75044.38
2024-04-09T06:14:28.793Z,75006.84
2024-04-09T06:16:02.333Z,75022.66
2024-04-09T06:17:39.198Z,75056.25
2024-04-09T06:19:15.552Z,75164.97
2024-04-09T06:20:49.331Z,75170.91
2024-04-09T06:22:23.233Z,75176.81
2024-04-09T06:23:57.046Z,75210.44
2024-04-09T06:25:31.280Z,75186.72
2024-04-09T06:27:05.576Z,75206.47
2024-04-09T06:28:39.092Z,75216.38
2024-04-09T06:30:12.568Z,75196.59
2024-04-09T06:31:46.187Z,75228.22
2024-04-09T06:33:19.828Z,75153.09
2024-04-09T06:34:53.386Z,75121.47
2024-04-09T06:36:28.217Z,75125.44
2024-04-09T06:38:01.787Z,75123.47
2024-04-09T06:39:35.269Z,75078.00
2024-04-09T06:41:08.565Z,75085.91
2024-04-09T06:42:41.897Z,75026.59
2024-04-09T06:44:16.438Z,75016.72
2024-04-09T06:45:50.305Z,75000.91
2024-04-09T06:47:23.766Z,75032.53
2024-04-09T06:48:57.215Z,74994.97
2024-04-09T06:50:31.071Z,74967.31
2024-04-09T06:52:04.518Z,74989.03
2024-04-09T06:53:38.770Z,75004.84
2024-04-09T06:55:12.225Z,74971.25
2024-04-09T06:56:45.965Z,74987.06
2024-04-09T06:58:19.392Z,74917.88
2024-04-09T06:59:52.933Z,74913.94
2024-04-09T07:01:26.294Z,74911.97
2024-04-09T07:03:02.052Z,74949.50
2024-04-09T07:04:39.102Z,74931.72
2024-04-09T07:06:13.670Z,74896.16
2024-04-09T07:07:47.252Z,74880.34
2024-04-09T07:09:20.911Z,74925.78
2024-04-09T07:10:58.053Z,74825.00
2024-04-09T07:12:34.789Z,74836.84
2024-04-09T07:14:08.606Z,74807.19
2024-04-09T07:15:42.134Z,74856.63
2024-04-09T07:17:21.425Z,74738.03
2024-04-09T07:18:56.219Z,74773.59
2024-04-09T07:20:29.663Z,74805.22
2024-04-09T07:22:04.253Z,74840.81
2024-04-09T07:23:37.520Z,74777.56
2024-04-09T07:25:11.872Z,74741.97
2024-04-09T07:26:45.030Z,74722.22
2024-04-09T07:28:18.399Z,74771.63
2024-04-09T07:29:51.778Z,74769.66
2024-04-09T07:31:25.157Z,74817.09
2024-04-09T07:32:59.571Z,74904.06
2024-04-09T07:34:32.981Z,74892.19
2024-04-09T07:36:06.569Z,74828.94
2024-04-09T07:37:40.114Z,74813.13
2024-04-09T07:39:16.589Z,74840.81
2024-04-09T07:40:50.012Z,74783.47
2024-04-09T07:42:23.478Z,74779.53
2024-04-09T07:43:57.306Z,74801.28
2024-04-09T07:45:31.466Z,74876.38
2024-04-09T07:47:05.312Z,74878.34
2024-04-09T07:48:39.659Z,74844.75
2024-04-09T07:50:13.011Z,74828.94
2024-04-09T07:51:46.559Z,74846.72
2024-04-09T07:53:21.163Z,74860.56
2024-04-09T07:54:54.458Z,74880.34
2024-04-09T07:56:28.394Z,74957.41
2024-04-09T07:58:02.009Z,74921.84
2024-04-09T07:59:35.656Z,74866.50
2024-04-09T08:01:09.313Z,74848.72
2024-04-09T08:02:49.313Z,74848.72
2024-04-09T08:04:22.953Z,74797.31
2024-04-09T08:05:56.608Z,74852.66
2024-04-09T08:07:30.080Z,74904.06
2024-04-09T08:09:03.765Z,74832.91
2024-04-09T08:10:38.532Z,74813.13
2024-04-09T08:12:12.056Z,74797.31
2024-04-09T08:13:45.559Z,74866.50
2024-04-09T08:15:23.046Z,74908.00
2024-04-09T08:16:56.389Z,74953.47
2024-04-09T08:18:29.844Z,74892.19
2024-04-09T08:20:03.686Z,74945.56
2024-04-09T08:21:37.376Z,74931.72
2024-04-09T08:23:11.127Z,74935.69
2024-04-09T08:24:47.195Z,74868.47
2024-04-09T08:26:20.843Z,74860.56
2024-04-09T08:27:54.526Z,74864.53
2024-04-09T08:29:33.509Z,74799.28
2024-04-09T08:31:08.348Z,74852.66
2024-04-09T08:32:44.512Z,74868.47
2024-04-09T08:34:19.531Z,74842.78
2024-04-09T08:35:53.157Z,74921.84
2024-04-09T08:37:27.597Z,74911.97
2024-04-09T08:39:02.008Z,74852.66
2024-04-09T08:40:36.751Z,74838.81
2024-04-09T08:42:10.834Z,74844.75
2024-04-09T08:43:45.084Z,74840.81
2024-04-09T08:45:20.765Z,74789.41
2024-04-09T08:46:56.315Z,74787.44
2024-04-09T08:48:31.921Z,74773.59
2024-04-09T08:50:08.820Z,74763.72
2024-04-09T08:51:45.546Z,74722.22
2024-04-09T08:53:20.051Z,74749.88
2024-04-09T08:54:53.680Z,74787.44
2024-04-09T08:56:27.315Z,74805.22
2024-04-09T08:58:00.931Z,74793.38
2024-04-09T08:59:34.246Z,74803.25
2024-04-09T09:01:07.776Z,74755.81
2024-04-09T09:02:41.792Z,74793.38
2024-04-09T09:04:15.300Z,74769.66
2024-04-09T09:06:08.063Z,74751.84
2024-04-09T09:07:42.012Z,74781.50
2024-04-09T09:09:30.497Z,74801.28
2024-04-09T09:11:03.838Z,74761.75
2024-04-09T09:12:37.420Z,74779.53
2024-04-09T09:14:10.860Z,74777.56
2024-04-09T09:15:44.361Z,74734.06
2024-04-09T09:17:17.712Z,74763.72
2024-04-09T09:18:51.170Z,74793.38
2024-04-09T09:20:25.230Z,74741.97
2024-04-09T09:22:11.467Z,74734.06
2024-04-09T09:23:44.701Z,74722.22
2024-04-09T09:25:19.986Z,74662.91
2024-04-09T09:27:13.964Z,74680.72
2024-04-09T09:28:47.292Z,74718.25
2024-04-09T09:30:20.642Z,74698.50
2024-04-09T09:31:54.071Z,74690.59
2024-04-09T09:33:31.477Z,74684.66
2024-04-09T09:35:12.180Z,74734.06
2024-04-09T09:36:47.251Z,74680.72
2024-04-09T09:38:25.419Z,74651.06
2024-04-09T09:40:00.572Z,74680.72
2024-04-09T09:41:35.581Z,74722.22
2024-04-09T09:43:11.928Z,74676.75
2024-04-09T09:44:46.954Z,74670.81
2024-04-09T09:46:20.362Z,74637.22
2024-04-09T09:47:56.144Z,74635.25
2024-04-09T09:49:31.131Z,74655.00
2024-04-09T09:51:06.431Z,74670.81
2024-04-09T09:52:44.424Z,74645.13
2024-04-09T09:54:18.692Z,74658.97
2024-04-09T09:55:57.558Z,74615.47
2024-04-09T09:57:34.190Z,74631.28
2024-04-09T09:59:09.970Z,74698.50
2024-04-09T10:00:44.689Z,74655.00
2024-04-09T10:02:20.557Z,74601.66
2024-04-09T10:03:54.696Z,74633.28
2024-04-09T10:05:38.510Z,74643.16
2024-04-09T10:07:13.702Z,74625.38
2024-04-09T10:08:49.681Z,74670.81
2024-04-09T10:10:32.462Z,74710.34
2024-04-09T10:12:06.383Z,74712.34
2024-04-09T10:13:51.125Z,74690.59
2024-04-09T10:15:28.803Z,74704.44
2024-04-09T10:17:13.390Z,74637.22
2024-04-09T10:18:48.957Z,74649.09
2024-04-09T10:20:23.913Z,74627.34
2024-04-09T10:21:58.858Z,74635.25
2024-04-09T10:23:38.056Z,74593.75
2024-04-09T10:25:21.056Z,74575.97
2024-04-09T10:26:55.693Z,74587.81
2024-04-09T10:28:34.027Z,74528.53
2024-04-09T10:30:18.395Z,74536.44
2024-04-09T10:31:51.604Z,74508.75
2024-04-09T10:33:36.612Z,74441.56
2024-04-09T10:35:17.355Z,74516.66
2024-04-09T10:36:53.080Z,74524.56
2024-04-09T10:38:27.653Z,74518.66
2024-04-09T10:40:00.921Z,74518.66
2024-04-09T10:41:34.737Z,74564.09
2024-04-09T10:43:09.694Z,74546.31
2024-04-09T10:44:43.251Z,74554.22
2024-04-09T10:46:17.887Z,74526.53
2024-04-09T10:47:51.486Z,74540.38
2024-04-09T10:49:25.121Z,74566.06
2024-04-09T10:50:59.567Z,74520.63
2024-04-09T10:52:34.230Z,74528.53
2024-04-09T10:54:07.780Z,74550.25
2024-04-09T10:55:41.142Z,74504.81
2024-04-09T10:57:14.645Z,74546.31
2024-04-09T10:58:48.434Z,74504.81
2024-04-09T11:00:23.494Z,74508.75
2024-04-09T11:01:58.534Z,74481.09
2024-04-09T11:03:32.200Z,74568.06
2024-04-09T11:05:11.011Z,74530.50
2024-04-09T11:06:44.831Z,74651.06
2024-04-09T11:08:32.427Z,74637.22
2024-04-09T11:10:12.533Z,74641.19
2024-04-09T11:11:47.275Z,74686.63
2024-04-09T11:13:20.754Z,74678.72
2024-04-09T11:14:54.336Z,74627.34
2024-04-09T11:16:27.816Z,74585.84
2024-04-09T11:18:10.375Z,74593.75
2024-04-09T11:19:45.183Z,74609.56
2024-04-09T11:21:20.595Z,74625.38
2024-04-09T11:22:55.707Z,74651.06
2024-04-09T11:24:29.014Z,74647.09
2024-04-09T11:26:05.670Z,74666.88
2024-04-09T11:27:46.673Z,74657.00
2024-04-09T11:29:24.181Z,74668.84
2024-04-09T11:30:58.067Z,74716.28
2024-04-09T11:32:33.476Z,74651.06
2024-04-09T11:34:06.962Z,74682.69
2024-04-09T11:35:40.669Z,74718.25
2024-04-09T11:37:13.928Z,74732.09
2024-04-09T11:38:47.561Z,74710.34
2024-04-09T11:40:29.138Z,74692.56
2024-04-09T11:42:04.487Z,74611.53
2024-04-09T11:43:38.105Z,74639.19
2024-04-09T11:45:11.652Z,74607.59
2024-04-09T11:46:45.000Z,74668.84
2024-04-09T11:48:18.575Z,74643.16
2024-04-09T11:49:52.054Z,74615.47
2024-04-09T11:51:25.508Z,74603.63
2024-04-09T11:52:58.841Z,74591.78
2024-04-09T11:54:32.208Z,74589.78
2024-04-09T11:56:05.729Z,74587.81
2024-04-09T11:57:39.872Z,74643.16
2024-04-09T11:59:13.314Z,74645.13
2024-04-09T12:00:46.881Z,74670.81
2024-04-09T12:02:20.384Z,74702.44
2024-04-09T12:03:54.023Z,74747.91
2024-04-09T12:05:27.962Z,74732.09
2024-04-09T12:07:01.536Z,74732.09
2024-04-09T12:08:35.061Z,74769.66
2024-04-09T12:10:09.652Z,74771.63
2024-04-09T12:11:43.104Z,74787.44
2024-04-09T12:13:17.065Z,74821.03
2024-04-09T12:14:50.409Z,74830.91
2024-04-09T12:16:23.762Z,74769.66
2024-04-09T12:17:57.165Z,74809.19
2024-04-09T12:19:30.778Z,74817.09
2024-04-09T12:21:04.484Z,74783.47
2024-04-09T12:22:38.465Z,74805.22
2024-04-09T12:24:13.481Z,74753.84
2024-04-09T12:25:47.350Z,74751.84
2024-04-09T12:27:20.719Z,74777.56
2024-04-09T12:28:59.255Z,74785.47
2024-04-09T12:30:32.588Z,74789.41
2024-04-09T12:32:08.020Z,74805.22
2024-04-09T12:33:41.699Z,74807.19
2024-04-09T12:35:15.689Z,74825.00
2024-04-09T12:36:50.321Z,74911.97
2024-04-09T12:38:26.718Z,74888.25
2024-04-09T12:39:59.949Z,74836.84
2024-04-09T12:41:33.515Z,74874.41
2024-04-09T12:43:06.999Z,74915.91
2024-04-09T12:44:40.494Z,74919.88
2024-04-09T12:46:13.761Z,74959.41
2024-04-09T12:47:47.353Z,74967.31
2024-04-09T12:49:41.570Z,74935.69
2024-04-09T12:51:18.305Z,74939.63
2024-04-09T12:52:51.541Z,74911.97
2024-04-09T12:54:25.500Z,74911.97
2024-04-09T12:55:58.767Z,74923.81
2024-04-09T12:57:33.483Z,74951.50
2024-04-09T12:59:07.394Z,74955.44
2024-04-09T13:02:22.641Z,74957.41
2024-04-09T13:03:56.536Z,74979.16
2024-04-09T13:05:30.192Z,74951.50
2024-04-09T13:07:05.379Z,74983.13
2024-04-09T13:08:38.823Z,74987.06
2024-04-09T13:10:12.665Z,74935.69
2024-04-09T13:11:45.973Z,74949.50
2024-04-09T13:13:19.357Z,74955.44
2024-04-09T13:16:50.088Z,74904.06
2024-04-09T13:18:23.446Z,74963.34
2024-04-09T13:19:56.952Z,74939.63
2024-04-09T13:21:30.294Z,74951.50
2024-04-09T13:23:06.173Z,74981.13
2024-04-09T13:24:40.603Z,74989.03
2024-04-09T13:26:14.404Z,74967.31
2024-04-09T13:27:47.738Z,74998.94
2024-04-09T13:29:21.371Z,74955.44
2024-04-09T13:30:54.794Z,74965.31
2024-04-09T13:32:30.280Z,74979.16
2024-04-09T13:34:07.233Z,74971.25
2024-04-09T13:35:41.119Z,75010.78
2024-04-09T13:37:14.358Z,74975.22
2024-04-09T13:38:50.282Z,74971.25
2024-04-09T13:40:24.757Z,75008.81
2024-04-09T13:41:58.414Z,75060.22
2024-04-09T13:43:32.164Z,75026.59
2024-04-09T13:45:06.461Z,75058.22
2024-04-09T13:46:40.203Z,75068.09
2024-04-09T13:48:13.679Z,75062.19
2024-04-09T13:49:49.189Z,75089.84
2024-04-09T13:51:23.834Z,75091.84
2024-04-09T13:52:57.443Z,75078.00
2024-04-09T13:54:31.442Z,75093.81
2024-04-09T13:56:05.035Z,75095.78
2024-04-09T13:57:38.709Z,75095.78
2024-04-09T13:59:12.393Z,75101.72
2024-04-09T14:00:47.698Z,75078.00
2024-04-09T14:02:23.826Z,75131.38
2024-04-09T14:03:58.360Z,75129.38
2024-04-09T14:05:32.239Z,75145.19
2024-04-09T14:07:06.444Z,75172.88
2024-04-09T14:08:39.948Z,75188.69
2024-04-09T14:10:14.021Z,75125.44
2024-04-09T14:11:47.711Z,75117.53
2024-04-09T14:13:24.755Z,75133.34
2024-04-09T14:14:58.030Z,75105.66
2024-04-09T14:16:33.980Z,75125.44
2024-04-09T14:18:10.275Z,75141.25
2024-04-09T14:19:44.380Z,75186.72
2024-04-09T14:21:18.320Z,75224.28
2024-04-09T14:22:51.876Z,75265.78
2024-04-09T14:24:25.306Z,75240.09
2024-04-09T14:26:00.394Z,75236.13
2024-04-09T14:27:34.173Z,75236.13
2024-04-09T14:29:07.745Z,75255.91
2024-04-09T14:30:50.651Z,75242.06
2024-04-09T14:32:24.177Z,75242.06
2024-04-09T14:33:57.549Z,75255.91
2024-04-09T14:35:31.175Z,75277.63
2024-04-09T14:37:04.693Z,75283.56
2024-04-09T14:38:38.375Z,75301.38
2024-04-09T14:40:12.371Z,75295.44
2024-04-09T14:41:45.802Z,75319.16
2024-04-09T14:43:19.371Z,75287.53
2024-04-09T14:44:52.886Z,75334.97
2024-04-09T14:46:26.554Z,75331.00
2024-04-09T14:48:00.131Z,75309.28
2024-04-09T14:49:33.900Z,75329.03
2024-04-09T14:51:07.592Z,75311.25
2024-04-09T14:52:41.330Z,75315.19
2024-04-09T14:54:15.822Z,75334.97
2024-04-09T14:55:50.816Z,75346.81
2024-04-09T14:57:24.271Z,75382.41
2024-04-09T14:58:57.888Z,75402.19
2024-04-09T15:00:31.661Z,75396.25
2024-04-09T15:02:05.410Z,75362.63
2024-04-09T15:03:38.934Z,75414.03
2024-04-09T15:05:13.534Z,75418.00
2024-04-09T15:06:48.105Z,75423.94
2024-04-09T15:08:23.194Z,75447.66
2024-04-09T15:09:56.588Z,75449.63
2024-04-09T15:11:30.155Z,75437.75
2024-04-09T15:13:03.871Z,75447.66
2024-04-09T15:14:37.316Z,75491.13
2024-04-09T15:16:10.924Z,75459.50
2024-04-09T15:17:44.398Z,75510.91
2024-04-09T15:19:18.547Z,75508.94
2024-04-09T15:20:53.048Z,75510.91
2024-04-09T15:22:27.076Z,75540.56
2024-04-09T15:24:00.598Z,75528.69
2024-04-09T15:25:34.104Z,75524.75
2024-04-09T15:27:07.574Z,75526.72
2024-04-09T15:28:43.360Z,75560.31
2024-04-09T15:30:20.429Z,75564.28
2024-04-09T15:31:54.014Z,75572.19
2024-04-09T15:33:27.903Z,75576.13
2024-04-09T15:35:01.848Z,75580.09
2024-04-09T15:36:36.618Z,75566.25
2024-04-09T15:38:10.453Z,75576.13
2024-04-09T15:39:44.209Z,75584.06
2024-04-09T15:41:18.256Z,75625.56
2024-04-09T15:42:54.786Z,75625.56
2024-04-09T15:44:28.850Z,75593.94
2024-04-09T15:46:02.222Z,75619.63
2024-04-09T15:47:36.090Z,75629.53
2024-04-09T15:49:17.624Z,75623.59
2024-04-09T15:50:52.074Z,75655.22
2024-04-09T15:52:25.832Z,75647.31
2024-04-09T15:54:01.266Z,75655.22
2024-04-09T15:55:35.174Z,75655.22
2024-04-09T15:57:09.729Z,75651.25
2024-04-09T15:58:48.215Z,75671.03
2024-04-09T16:00:24.551Z,75682.91
2024-04-09T16:01:58.380Z,75694.75
2024-04-09T16:03:32.107Z,75694.75
2024-04-09T16:05:06.118Z,75738.25
2024-04-09T16:06:46.726Z,75680.91
2024-04-09T16:08:21.396Z,75702.66
2024-04-09T16:10:00.179Z,75738.25
2024-04-09T16:11:33.743Z,75777.78
2024-04-09T16:13:07.129Z,75777.78
2024-04-09T16:14:43.887Z,75793.59
2024-04-09T16:16:17.267Z,75791.63
2024-04-09T16:17:50.912Z,75773.84
2024-04-09T16:19:28.292Z,75789.66
2024-04-09T16:21:04.735Z,75769.88
2024-04-09T16:22:39.236Z,75791.63
2024-04-09T16:24:12.679Z,75805.47
2024-04-09T16:25:46.149Z,75789.66
2024-04-09T16:27:19.773Z,75771.84
2024-04-09T16:28:53.907Z,75769.88
2024-04-09T16:30:29.568Z,75765.94
2024-04-09T16:32:03.244Z,75769.88
2024-04-09T16:33:38.009Z,75765.94
2024-04-09T16:35:12.711Z,75777.78
2024-04-09T16:36:47.544Z,75773.84
2024-04-09T16:38:21.129Z,75767.91
2024-04-09T16:39:54.733Z,75761.97
2024-04-09T16:41:28.364Z,75773.84
2024-04-09T16:43:01.931Z,75779.75
2024-04-09T16:44:35.692Z,75791.63
2024-04-09T16:46:09.106Z,75799.53
2024-04-09T16:47:44.256Z,75797.56
2024-04-09T16:49:18.145Z,75809.41
2024-04-09T16:50:53.057Z,75848.97
2024-04-09T16:52:26.754Z,75841.06
2024-04-09T16:54:00.299Z,75841.06
2024-04-09T16:55:33.702Z,75918.16
2024-04-09T16:57:08.063Z,75943.88
2024-04-09T16:58:42.702Z,75916.19
2024-04-09T17:00:16.582Z,75933.97
2024-04-09T17:01:50.067Z,75900.38
2024-04-09T17:03:27.079Z,75918.16
2024-04-09T17:05:00.864Z,75910.25
2024-04-09T17:06:34.891Z,75935.94
2024-04-09T17:08:08.369Z,75947.81
2024-04-09T17:09:43.465Z,75943.88
2024-04-09T17:11:17.137Z,75979.44
2024-04-09T17:12:50.699Z,75975.50
2024-04-09T17:14:25.826Z,75947.81
2024-04-09T17:15:59.813Z,75943.88
2024-04-09T17:17:33.418Z,75955.72
2024-04-09T17:19:11.377Z,75904.31
2024-04-09T17:20:45.673Z,75949.78
2024-04-09T17:22:19.696Z,75959.69
2024-04-09T17:23:53.461Z,75981.44
2024-04-09T17:25:26.958Z,75965.59
2024-04-09T17:27:00.552Z,75963.63
2024-04-09T17:28:34.387Z,75971.53
2024-04-09T17:30:10.963Z,75967.59
2024-04-09T17:31:44.567Z,75961.66
2024-04-09T17:33:18.031Z,75971.53
2024-04-09T17:34:51.854Z,75979.44
2024-04-09T17:36:25.296Z,75975.50
2024-04-09T17:37:59.592Z,75967.59
2024-04-09T17:39:35.665Z,75943.88
2024-04-09T17:41:09.496Z,75959.69
2024-04-09T17:42:43.309Z,75991.31
2024-04-09T17:44:17.748Z,75965.59
2024-04-09T17:45:58.249Z,75957.69
2024-04-09T17:47:32.042Z,75983.41
2024-04-09T17:49:06.791Z,75973.50
2024-04-09T17:50:40.621Z,75975.50
2024-04-09T17:52:14.808Z,75971.53
2024-04-09T17:53:48.528Z,75981.44
2024-04-09T17:55:23.560Z,75957.69
2024-04-09T17:56:57.311Z,75971.53
2024-04-09T17:58:31.618Z,75945.84
2024-04-09T18:00:06.430Z,75947.81
2024-04-09T18:01:45.297Z,75969.56
2024-04-09T18:03:18.985Z,75999.22
2024-04-09T18:04:52.549Z,75991.31
2024-04-09T18:06:27.575Z,76019.00
2024-04-09T18:08:01.506Z,76020.97
2024-04-09T18:09:35.916Z,76026.91
2024-04-09T18:11:10.062Z,76011.09
2024-04-09T18:12:43.752Z,76022.94
2024-04-09T18:14:19.318Z,76036.78
2024-04-09T18:15:53.057Z,76052.59
2024-04-09T18:17:27.421Z,76054.56
2024-04-09T18:19:01.182Z,76003.16
2024-04-09T18:20:35.445Z,75983.41
2024-04-09T18:22:09.564Z,75973.50
2024-04-09T18:23:44.282Z,75975.50
2024-04-09T18:25:18.059Z,75935.94
2024-04-09T18:26:51.636Z,75926.06
2024-04-09T18:28:26.169Z,75894.44
2024-04-09T18:29:59.909Z,75939.91
2024-04-09T18:31:33.572Z,75932.00
2024-04-09T18:33:07.346Z,75999.22
2024-04-09T18:34:41.165Z,75991.31